Phoenix, AZ

12:44 PM MST on August 28, 2015 (GMT -0700)
Preserve at Shadow Mountain | | Change Station
CLOSE
Current Station
Personal Weather Station
Location: PHOENIX, AZ
Elevation: 1500 ft
Nearby Weather Stations

Elev 1500 ft 33.61 °N, 112.02 °W | Updated 12 minutes ago

Clear
Clear
97.9 °F
Feels Like 99 °F
N
3.0
Wind Variable Wind from SE
Gusts 8.0 mph

Today
High -- | Low -- °F
--% Chance of Precip.
Yesterday
High -- | Low -- °F
Precip. -- in
5:59 AM 6:58 PM
Waxing Gibbous, 99% visible
Pressure 29.84 in
Visibility 10.0 miles
Clouds Clear
Heat Index 99 °F
Dew Point 62 °F
Humidity 30%
Rainfall 0.00 in
Snow Depth Not available.
UV 11 out of 12
Pollen 5.00 out of 12
Air Quality Not available.
Flu Activity Not available.
METAR KSDL 281853Z VRB03KT 10SM CLR 36/15 A2993 RMK AO2 SLP104 T03610150
Pressure 29.84 in
Visibility 10.0 miles
Clouds Clear
Heat Index 99 °F
Dew Point 62 °F
Humidity 30%
Rainfall 0.00 in
Snow Depth Not available.
UV 11 out of 12
Pollen 5.00 out of 12
Air Quality Not available.
Flu Activity Not available.
METAR KSDL 281853Z VRB03KT 10SM CLR 36/15 A2993 RMK AO2 SLP104 T03610150

10-Day Weather Forecast

×

Almanac

Astronomy

Aug. 28, 2015 Rise Set
Actual Time
Civil Twilight
Nautical Twilight
Astronomical Twilight
Moon
Length of Visible Light
Length of Day
Tomorrow will be .
, % of the Moon is Illuminated

Today's Extremes

State Highs State Lows

Community

WunderPhotos

Upload Photos

1,850,466 photos uploaded!

WunderBlogs® & News

Nearby

Air Quality

  Air Quality AQ Index Pollutant
Not available.

Snow Depth

Station Depth Elevation

Earthquake Activity

City Distance Mag. Time & Date
Minimum magnitude displayed is 2.5.

Coastal Water Temperatures

Place Temperature

Stations

Nearby Weather Stations

Station Location Temp. Windchill Dew Point Humidity Wind Precip. Elev Updated Type